sensor_id;sensor_type;location;lat;lon;timestamp;pressure;altitude;pressure_sealevel;temperature;humidity
70198;BME280;57582;-34.876;138.628;2023-03-20T00:01:53;101923;;;18.40;51.61
70198;BME280;57582;-34.876;138.628;2023-03-20T00:04:53;101932;;;18.78;50.99
70198;BME280;57582;-34.876;138.628;2023-03-20T00:07:53;101947;;;19.13;49.46
70198;BME280;57582;-34.876;138.628;2023-03-20T00:10:53;101937;;;19.12;49.16
70198;BME280;57582;-34.876;138.628;2023-03-20T00:13:55;101938;;;19.07;49.66
70198;BME280;57582;-34.876;138.628;2023-03-20T00:16:54;101933;;;19.01;49.87
70198;BME280;57582;-34.876;138.628;2023-03-20T00:19:53;101942;;;18.77;49.29
70198;BME280;57582;-34.876;138.628;2023-03-20T00:22:53;101930;;;18.94;49.39
70198;BME280;57582;-34.876;138.628;2023-03-20T00:25:53;101926;;;19.06;48.59
70198;BME280;57582;-34.876;138.628;2023-03-20T00:28:54;101930;;;19.28;48.15
70198;BME280;57582;-34.876;138.628;2023-03-20T00:31:53;101934;;;19.12;48.30
70198;BME280;57582;-34.876;138.628;2023-03-20T00:34:53;101929;;;19.12;47.99
70198;BME280;57582;-34.876;138.628;2023-03-20T00:37:54;101926;;;19.26;47.83
70198;BME280;57582;-34.876;138.628;2023-03-20T00:40:54;101918;;;19.47;46.71
70198;BME280;57582;-34.876;138.628;2023-03-20T00:46:54;101908;;;19.84;47.43
70198;BME280;57582;-34.876;138.628;2023-03-20T00:49:54;101912;;;19.96;45.68
70198;BME280;57582;-34.876;138.628;2023-03-20T00:52:54;101921;;;19.93;45.87
70198;BME280;57582;-34.876;138.628;2023-03-20T00:55:53;101902;;;20.00;45.27
70198;BME280;57582;-34.876;138.628;2023-03-20T00:58:53;101905;;;19.92;45.14
70198;BME280;57582;-34.876;138.628;2023-03-20T01:01:54;101902;;;20.19;45.48
70198;BME280;57582;-34.876;138.628;2023-03-20T01:04:54;101913;;;20.46;44.83
70198;BME280;57582;-34.876;138.628;2023-03-20T01:07:53;101920;;;20.55;44.10
70198;BME280;57582;-34.876;138.628;2023-03-20T01:10:53;101916;;;20.78;44.38
70198;BME280;57582;-34.876;138.628;2023-03-20T01:13:54;101910;;;20.86;44.10
70198;BME280;57582;-34.876;138.628;2023-03-20T01:16:54;101907;;;20.87;43.38
70198;BME280;57582;-34.876;138.628;2023-03-20T01:19:53;101920;;;20.77;43.50
70198;BME280;57582;-34.876;138.628;2023-03-20T01:22:53;101907;;;20.71;43.71
70198;BME280;57582;-34.876;138.628;2023-03-20T01:25:53;101903;;;20.51;43.49
70198;BME280;57582;-34.876;138.628;2023-03-20T01:28:54;101909;;;20.65;44.45
70198;BME280;57582;-34.876;138.628;2023-03-20T01:31:53;101903;;;20.83;44.18
70198;BME280;57582;-34.876;138.628;2023-03-20T01:34:53;101895;;;21.13;43.67
70198;BME280;57582;-34.876;138.628;2023-03-20T01:37:53;101905;;;21.54;43.04
70198;BME280;57582;-34.876;138.628;2023-03-20T01:43:53;101908;;;21.70;41.73
70198;BME280;57582;-34.876;138.628;2023-03-20T01:46:53;101890;;;21.58;41.71
70198;BME280;57582;-34.876;138.628;2023-03-20T01:52:57;101887;;;21.55;41.17
70198;BME280;57582;-34.876;138.628;2023-03-20T01:55:54;101876;;;21.41;42.61
70198;BME280;57582;-34.876;138.628;2023-03-20T01:58:56;101885;;;21.43;41.30
70198;BME280;57582;-34.876;138.628;2023-03-20T02:01:53;101885;;;21.53;42.15
70198;BME280;57582;-34.876;138.628;2023-03-20T02:04:55;101878;;;21.92;40.77
70198;BME280;57582;-34.876;138.628;2023-03-20T02:07:57;101866;;;22.27;40.74
70198;BME280;57582;-34.876;138.628;2023-03-20T02:10:54;101866;;;22.21;40.17
70198;BME280;57582;-34.876;138.628;2023-03-20T02:13:54;101861;;;22.37;40.11
70198;BME280;57582;-34.876;138.628;2023-03-20T02:16:54;101851;;;22.59;39.34
70198;BME280;57582;-34.876;138.628;2023-03-20T02:25:59;101828;;;22.88;39.29
70198;BME280;57582;-34.876;138.628;2023-03-20T02:32:01;101829;;;23.21;38.48
70198;BME280;57582;-34.876;138.628;2023-03-20T02:37:56;101823;;;23.31;38.30
70198;BME280;57582;-34.876;138.628;2023-03-20T02:41:13;101826;;;23.38;38.04
70198;BME280;57582;-34.876;138.628;2023-03-20T02:43:58;101844;;;23.12;38.00
70198;BME280;57582;-34.876;138.628;2023-03-20T02:52:57;101835;;;23.06;37.29
70198;BME280;57582;-34.876;138.628;2023-03-20T02:56:09;101840;;;22.76;37.72
70198;BME280;57582;-34.876;138.628;2023-03-20T03:01:57;101829;;;22.84;39.00
70198;BME280;57582;-34.876;138.628;2023-03-20T03:04:55;101828;;;22.90;38.70
70198;BME280;57582;-34.876;138.628;2023-03-20T03:07:54;101822;;;22.89;38.20
70198;BME280;57582;-34.876;138.628;2023-03-20T03:10:55;101828;;;22.66;38.07
70198;BME280;57582;-34.876;138.628;2023-03-20T03:13:54;101810;;;22.94;38.63
70198;BME280;57582;-34.876;138.628;2023-03-20T03:16:54;101813;;;22.94;38.21
70198;BME280;57582;-34.876;138.628;2023-03-20T03:19:54;101802;;;22.70;37.84
70198;BME280;57582;-34.876;138.628;2023-03-20T03:22:53;101778;;;22.75;39.05
70198;BME280;57582;-34.876;138.628;2023-03-20T03:25:55;101775;;;23.14;38.09
70198;BME280;57582;-34.876;138.628;2023-03-20T03:28:55;101758;;;23.31;37.32
70198;BME280;57582;-34.876;138.628;2023-03-20T03:31:53;101762;;;23.27;37.53
70198;BME280;57582;-34.876;138.628;2023-03-20T03:34:53;101761;;;23.15;36.56
70198;BME280;57582;-34.876;138.628;2023-03-20T03:40:58;101760;;;22.77;36.89
70198;BME280;57582;-34.876;138.628;2023-03-20T03:44:04;101755;;;23.08;37.32
70198;BME280;57582;-34.876;138.628;2023-03-20T03:49:56;101763;;;23.18;36.53
70198;BME280;57582;-34.876;138.628;2023-03-20T03:52:55;101754;;;23.01;37.02
70198;BME280;57582;-34.876;138.628;2023-03-20T03:55:54;101753;;;22.89;37.39
70198;BME280;57582;-34.876;138.628;2023-03-20T03:58:55;101756;;;22.99;36.42
70198;BME280;57582;-34.876;138.628;2023-03-20T04:01:54;101744;;;22.65;37.21
70198;BME280;57582;-34.876;138.628;2023-03-20T04:04:54;101745;;;22.76;36.96
70198;BME280;57582;-34.876;138.628;2023-03-20T04:07:54;101739;;;22.76;36.09
70198;BME280;57582;-34.876;138.628;2023-03-20T04:10:53;101737;;;22.88;36.73
70198;BME280;57582;-34.876;138.628;2023-03-20T04:13:54;101722;;;22.81;36.90
70198;BME280;57582;-34.876;138.628;2023-03-20T04:16:54;101726;;;22.76;36.25
70198;BME280;57582;-34.876;138.628;2023-03-20T04:19:54;101723;;;22.81;36.84
70198;BME280;57582;-34.876;138.628;2023-03-20T04:22:53;101717;;;22.71;36.41
70198;BME280;57582;-34.876;138.628;2023-03-20T04:25:54;101712;;;22.53;36.52
70198;BME280;57582;-34.876;138.628;2023-03-20T04:28:54;101694;;;22.55;36.27
70198;BME280;57582;-34.876;138.628;2023-03-20T04:31:54;101685;;;22.56;36.06
70198;BME280;57582;-34.876;138.628;2023-03-20T04:34:53;101687;;;22.54;35.75
70198;BME280;57582;-34.876;138.628;2023-03-20T04:37:54;101689;;;22.52;35.85
70198;BME280;57582;-34.876;138.628;2023-03-20T04:40:54;101687;;;22.66;36.00
70198;BME280;57582;-34.876;138.628;2023-03-20T04:43:53;101684;;;22.74;36.20
70198;BME280;57582;-34.876;138.628;2023-03-20T04:46:54;101674;;;22.48;35.91
70198;BME280;57582;-34.876;138.628;2023-03-20T04:49:55;101675;;;22.70;36.99
70198;BME280;57582;-34.876;138.628;2023-03-20T04:52:54;101674;;;22.58;36.22
70198;BME280;57582;-34.876;138.628;2023-03-20T04:55:54;101664;;;22.68;35.91
70198;BME280;57582;-34.876;138.628;2023-03-20T04:58:54;101652;;;22.44;36.11
70198;BME280;57582;-34.876;138.628;2023-03-20T05:01:54;101635;;;22.51;36.05
70198;BME280;57582;-34.876;138.628;2023-03-20T05:04:54;101638;;;22.58;36.30
70198;BME280;57582;-34.876;138.628;2023-03-20T05:07:54;101631;;;22.57;36.44
70198;BME280;57582;-34.876;138.628;2023-03-20T05:10:54;101630;;;22.66;36.23
70198;BME280;57582;-34.876;138.628;2023-03-20T05:13:54;101641;;;22.58;36.54
70198;BME280;57582;-34.876;138.628;2023-03-20T05:16:54;101657;;;22.76;36.53
70198;BME280;57582;-34.876;138.628;2023-03-20T05:19:54;101677;;;22.78;36.24
70198;BME280;57582;-34.876;138.628;2023-03-20T05:22:54;101680;;;22.99;36.66
70198;BME280;57582;-34.876;138.628;2023-03-20T05:25:55;101673;;;23.15;35.44
70198;BME280;57582;-34.876;138.628;2023-03-20T05:28:54;101680;;;23.16;35.84
70198;BME280;57582;-34.876;138.628;2023-03-20T05:31:54;101697;;;23.13;36.58
70198;BME280;57582;-34.876;138.628;2023-03-20T05:34:54;101696;;;22.93;35.79
70198;BME280;57582;-34.876;138.628;2023-03-20T05:37:54;101687;;;22.97;36.34
70198;BME280;57582;-34.876;138.628;2023-03-20T05:40:56;101687;;;22.91;36.56
70198;BME280;57582;-34.876;138.628;2023-03-20T05:43:54;101676;;;22.84;36.62
70198;BME280;57582;-34.876;138.628;2023-03-20T05:46:54;101671;;;22.88;36.56
70198;BME280;57582;-34.876;138.628;2023-03-20T05:49:54;101661;;;22.91;36.26
70198;BME280;57582;-34.876;138.628;2023-03-20T05:52:54;101659;;;22.80;35.97
70198;BME280;57582;-34.876;138.628;2023-03-20T05:55:54;101649;;;22.76;36.97
70198;BME280;57582;-34.876;138.628;2023-03-20T05:58:54;101643;;;23.02;36.56
70198;BME280;57582;-34.876;138.628;2023-03-20T06:01:54;101644;;;23.14;37.76
70198;BME280;57582;-34.876;138.628;2023-03-20T06:04:54;101644;;;23.32;36.55
70198;BME280;57582;-34.876;138.628;2023-03-20T06:07:54;101644;;;23.60;36.02
70198;BME280;57582;-34.876;138.628;2023-03-20T06:10:54;101645;;;23.53;35.51
70198;BME280;57582;-34.876;138.628;2023-03-20T06:13:55;101613;;;23.20;35.38
70198;BME280;57582;-34.876;138.628;2023-03-20T06:16:54;101596;;;23.10;36.12
70198;BME280;57582;-34.876;138.628;2023-03-20T06:19:54;101608;;;22.92;36.76
70198;BME280;57582;-34.876;138.628;2023-03-20T06:22:54;101638;;;23.25;36.70
70198;BME280;57582;-34.876;138.628;2023-03-20T06:25:54;101631;;;23.38;36.14
70198;BME280;57582;-34.876;138.628;2023-03-20T06:28:54;101634;;;23.31;36.28
70198;BME280;57582;-34.876;138.628;2023-03-20T06:31:54;101654;;;23.23;36.40
70198;BME280;57582;-34.876;138.628;2023-03-20T06:34:54;101660;;;23.39;36.60
70198;BME280;57582;-34.876;138.628;2023-03-20T06:37:54;101640;;;23.35;36.45
70198;BME280;57582;-34.876;138.628;2023-03-20T06:40:54;101634;;;23.07;36.80
70198;BME280;57582;-34.876;138.628;2023-03-20T06:43:54;101625;;;23.19;36.76
70198;BME280;57582;-34.876;138.628;2023-03-20T06:46:54;101611;;;23.32;36.26
70198;BME280;57582;-34.876;138.628;2023-03-20T06:49:54;101616;;;23.50;36.15
70198;BME280;57582;-34.876;138.628;2023-03-20T06:52:54;101636;;;23.64;36.22
70198;BME280;57582;-34.876;138.628;2023-03-20T06:55:54;101658;;;23.77;35.43
70198;BME280;57582;-34.876;138.628;2023-03-20T06:58:54;101661;;;23.87;34.73
70198;BME280;57582;-34.876;138.628;2023-03-20T07:01:54;101629;;;23.81;34.48
70198;BME280;57582;-34.876;138.628;2023-03-20T07:04:54;101636;;;23.64;35.09
70198;BME280;57582;-34.876;138.628;2023-03-20T07:07:54;101652;;;23.67;34.88
70198;BME280;57582;-34.876;138.628;2023-03-20T07:10:54;101657;;;23.45;35.12
70198;BME280;57582;-34.876;138.628;2023-03-20T07:13:54;101639;;;23.41;35.35
70198;BME280;57582;-34.876;138.628;2023-03-20T07:16:54;101617;;;22.87;36.10
70198;BME280;57582;-34.876;138.628;2023-03-20T07:19:54;101602;;;22.48;36.61
70198;BME280;57582;-34.876;138.628;2023-03-20T07:22:54;101614;;;22.42;36.69
70198;BME280;57582;-34.876;138.628;2023-03-20T07:25:54;101624;;;22.33;37.02
70198;BME280;57582;-34.876;138.628;2023-03-20T07:28:54;101617;;;22.13;37.58
70198;BME280;57582;-34.876;138.628;2023-03-20T07:31:54;101607;;;22.06;38.01
70198;BME280;57582;-34.876;138.628;2023-03-20T07:34:54;101608;;;22.14;37.91
70198;BME280;57582;-34.876;138.628;2023-03-20T07:37:54;101594;;;22.14;38.09
70198;BME280;57582;-34.876;138.628;2023-03-20T07:40:54;101580;;;22.06;37.73
70198;BME280;57582;-34.876;138.628;2023-03-20T07:43:54;101581;;;22.14;37.59
70198;BME280;57582;-34.876;138.628;2023-03-20T07:46:54;101601;;;22.19;36.92
70198;BME280;57582;-34.876;138.628;2023-03-20T07:49:54;101648;;;22.31;36.94
70198;BME280;57582;-34.876;138.628;2023-03-20T07:52:54;101674;;;22.50;36.52
70198;BME280;57582;-34.876;138.628;2023-03-20T07:55:54;101666;;;22.71;36.44
70198;BME280;57582;-34.876;138.628;2023-03-20T07:58:54;101674;;;22.83;35.75
70198;BME280;57582;-34.876;138.628;2023-03-20T08:01:54;101682;;;22.96;35.74
70198;BME280;57582;-34.876;138.628;2023-03-20T08:04:54;101699;;;23.14;35.83
70198;BME280;57582;-34.876;138.628;2023-03-20T08:07:54;101694;;;23.26;35.36
70198;BME280;57582;-34.876;138.628;2023-03-20T08:10:54;101698;;;23.32;34.83
70198;BME280;57582;-34.876;138.628;2023-03-20T08:13:54;101698;;;23.37;34.94
70198;BME280;57582;-34.876;138.628;2023-03-20T08:16:55;101692;;;23.31;34.63
70198;BME280;57582;-34.876;138.628;2023-03-20T08:19:54;101679;;;23.12;34.50
70198;BME280;57582;-34.876;138.628;2023-03-20T08:22:54;101662;;;22.85;34.61
70198;BME280;57582;-34.876;138.628;2023-03-20T08:25:54;101645;;;22.49;35.22
70198;BME280;57582;-34.876;138.628;2023-03-20T08:28:54;101642;;;22.39;35.60
70198;BME280;57582;-34.876;138.628;2023-03-20T08:31:54;101649;;;22.45;35.71
70198;BME280;57582;-34.876;138.628;2023-03-20T08:34:54;101638;;;22.61;35.71
70198;BME280;57582;-34.876;138.628;2023-03-20T08:37:54;101643;;;22.58;35.36
70198;BME280;57582;-34.876;138.628;2023-03-20T08:40:54;101641;;;22.71;35.31
70198;BME280;57582;-34.876;138.628;2023-03-20T08:43:54;101631;;;22.87;35.51
70198;BME280;57582;-34.876;138.628;2023-03-20T08:46:54;101640;;;22.98;35.61
70198;BME280;57582;-34.876;138.628;2023-03-20T08:49:54;101629;;;23.05;35.70
70198;BME280;57582;-34.876;138.628;2023-03-20T08:52:54;101629;;;23.13;35.46
70198;BME280;57582;-34.876;138.628;2023-03-20T08:55:54;101643;;;23.09;35.16
70198;BME280;57582;-34.876;138.628;2023-03-20T08:58:54;101638;;;22.97;35.12
70198;BME280;57582;-34.876;138.628;2023-03-20T09:01:54;101633;;;22.69;35.09
70198;BME280;57582;-34.876;138.628;2023-03-20T09:04:54;101634;;;22.72;34.83
70198;BME280;57582;-34.876;138.628;2023-03-20T09:07:54;101619;;;22.32;35.17
70198;BME280;57582;-34.876;138.628;2023-03-20T09:10:54;101628;;;22.37;35.61
70198;BME280;57582;-34.876;138.628;2023-03-20T09:13:54;101614;;;22.42;35.57
70198;BME280;57582;-34.876;138.628;2023-03-20T09:16:54;101605;;;22.25;35.65
70198;BME280;57582;-34.876;138.628;2023-03-20T09:19:54;101581;;;22.05;35.56
70198;BME280;57582;-34.876;138.628;2023-03-20T09:22:55;101581;;;22.10;36.15
70198;BME280;57582;-34.876;138.628;2023-03-20T09:25:54;101580;;;22.10;36.29
70198;BME280;57582;-34.876;138.628;2023-03-20T09:28:54;101592;;;22.07;36.75
70198;BME280;57582;-34.876;138.628;2023-03-20T09:31:54;101596;;;22.06;37.62
70198;BME280;57582;-34.876;138.628;2023-03-20T09:34:54;101586;;;21.87;38.17
70198;BME280;57582;-34.876;138.628;2023-03-20T09:37:54;101603;;;21.84;38.51
70198;BME280;57582;-34.876;138.628;2023-03-20T09:40:56;101627;;;21.95;38.75
70198;BME280;57582;-34.876;138.628;2023-03-20T09:44:01;101633;;;22.16;38.47
70198;BME280;57582;-34.876;138.628;2023-03-20T09:55:54;101638;;;22.81;37.50
70198;BME280;57582;-34.876;138.628;2023-03-20T09:58:55;101628;;;22.54;37.89
70198;BME280;57582;-34.876;138.628;2023-03-20T10:01:56;101622;;;22.01;39.13
70198;BME280;57582;-34.876;138.628;2023-03-20T10:04:54;101602;;;21.72;39.88
70198;BME280;57582;-34.876;138.628;2023-03-20T10:07:56;101602;;;21.53;40.21
70198;BME280;57582;-34.876;138.628;2023-03-20T10:14:13;101620;;;21.63;39.97
70198;BME280;57582;-34.876;138.628;2023-03-20T10:19:58;101630;;;21.99;38.92
70198;BME280;57582;-34.876;138.628;2023-03-20T10:25:58;101613;;;21.74;38.57
70198;BME280;57582;-34.876;138.628;2023-03-20T10:28:57;101629;;;21.80;38.64
70198;BME280;57582;-34.876;138.628;2023-03-20T10:32:02;101618;;;21.80;38.69
70198;BME280;57582;-34.876;138.628;2023-03-20T10:35:04;101617;;;21.85;38.49
70198;BME280;57582;-34.876;138.628;2023-03-20T10:40:55;101625;;;21.97;37.71
70198;BME280;57582;-34.876;138.628;2023-03-20T10:43:54;101644;;;22.19;38.28
70198;BME280;57582;-34.876;138.628;2023-03-20T10:46:54;101643;;;22.18;37.76
70198;BME280;57582;-34.876;138.628;2023-03-20T10:49:55;101649;;;22.30;37.39
70198;BME280;57582;-34.876;138.628;2023-03-20T10:52:54;101638;;;22.22;37.40
70198;BME280;57582;-34.876;138.628;2023-03-20T10:55:55;101651;;;22.23;37.14
70198;BME280;57582;-34.876;138.628;2023-03-20T10:58:57;101648;;;22.21;37.11
70198;BME280;57582;-34.876;138.628;2023-03-20T11:01:54;101650;;;22.19;37.65
70198;BME280;57582;-34.876;138.628;2023-03-20T11:04:55;101654;;;22.06;38.10
70198;BME280;57582;-34.876;138.628;2023-03-20T11:10:57;101634;;;21.93;38.69
70198;BME280;57582;-34.876;138.628;2023-03-20T11:13:54;101636;;;21.85;38.92
70198;BME280;57582;-34.876;138.628;2023-03-20T11:16:55;101634;;;21.70;39.24
70198;BME280;57582;-34.876;138.628;2023-03-20T11:19:54;101636;;;21.58;39.48
70198;BME280;57582;-34.876;138.628;2023-03-20T11:22:58;101630;;;21.63;39.44
70198;BME280;57582;-34.876;138.628;2023-03-20T11:25:57;101622;;;21.64;38.84
70198;BME280;57582;-34.876;138.628;2023-03-20T11:28:56;101622;;;21.72;38.58
70198;BME280;57582;-34.876;138.628;2023-03-20T11:31:54;101607;;;21.85;38.48
70198;BME280;57582;-34.876;138.628;2023-03-20T11:34:54;101611;;;22.07;38.32
70198;BME280;57582;-34.876;138.628;2023-03-20T11:37:55;101629;;;22.31;38.99
70198;BME280;57582;-34.876;138.628;2023-03-20T11:40:55;101637;;;22.59;38.37
70198;BME280;57582;-34.876;138.628;2023-03-20T11:43:54;101631;;;22.87;37.48
70198;BME280;57582;-34.876;138.628;2023-03-20T11:46:56;101640;;;23.23;36.90
70198;BME280;57582;-34.876;138.628;2023-03-20T11:49:56;101639;;;23.41;36.41
70198;BME280;57582;-34.876;138.628;2023-03-20T11:52:54;101634;;;23.45;37.46
70198;BME280;57582;-34.876;138.628;2023-03-20T11:58:55;101641;;;23.78;35.59
70198;BME280;57582;-34.876;138.628;2023-03-20T12:01:54;101645;;;23.89;35.87
70198;BME280;57582;-34.876;138.628;2023-03-20T12:04:57;101642;;;24.09;35.62
70198;BME280;57582;-34.876;138.628;2023-03-20T12:07:56;101642;;;23.81;35.74
70198;BME280;57582;-34.876;138.628;2023-03-20T12:10:56;101638;;;23.65;36.04
70198;BME280;57582;-34.876;138.628;2023-03-20T12:13:55;101637;;;23.63;36.07
70198;BME280;57582;-34.876;138.628;2023-03-20T12:17:00;101635;;;23.76;36.02
70198;BME280;57582;-34.876;138.628;2023-03-20T12:19:55;101637;;;23.87;35.49
70198;BME280;57582;-34.876;138.628;2023-03-20T12:23:00;101658;;;23.90;35.20
70198;BME280;57582;-34.876;138.628;2023-03-20T12:31:57;101663;;;24.00;35.59
70198;BME280;57582;-34.876;138.628;2023-03-20T12:34:56;101662;;;24.04;35.41
70198;BME280;57582;-34.876;138.628;2023-03-20T12:37:55;101663;;;23.98;35.38
70198;BME280;57582;-34.876;138.628;2023-03-20T12:40:59;101660;;;23.98;35.53
70198;BME280;57582;-34.876;138.628;2023-03-20T12:46:59;101642;;;24.12;35.47
70198;BME280;57582;-34.876;138.628;2023-03-20T12:56:04;101625;;;24.20;35.59
70198;BME280;57582;-34.876;138.628;2023-03-20T13:01:56;101614;;;23.66;36.23
70198;BME280;57582;-34.876;138.628;2023-03-20T13:11:01;101613;;;22.12;39.21
70198;BME280;57582;-34.876;138.628;2023-03-20T13:13:59;101619;;;21.89;39.57
70198;BME280;57582;-34.876;138.628;2023-03-20T13:17:01;101620;;;21.75;39.92
70198;BME280;57582;-34.876;138.628;2023-03-20T13:20:26;101617;;;21.61;40.18
70198;BME280;57582;-34.876;138.628;2023-03-20T13:31:58;101600;;;21.23;40.71
70198;BME280;57582;-34.876;138.628;2023-03-20T13:34:58;101582;;;21.03;41.10
70198;BME280;57582;-34.876;138.628;2023-03-20T13:37:57;101586;;;21.07;41.29
70198;BME280;57582;-34.876;138.628;2023-03-20T13:41:03;101579;;;21.04;41.84
70198;BME280;57582;-34.876;138.628;2023-03-20T13:43:56;101580;;;21.05;41.90
70198;BME280;57582;-34.876;138.628;2023-03-20T13:46:57;101569;;;21.01;41.77
70198;BME280;57582;-34.876;138.628;2023-03-20T13:49:57;101571;;;20.98;41.78
70198;BME280;57582;-34.876;138.628;2023-03-20T13:52:57;101560;;;21.06;41.62
70198;BME280;57582;-34.876;138.628;2023-03-20T14:05:00;101554;;;21.42;41.15
70198;BME280;57582;-34.876;138.628;2023-03-20T14:07:55;101551;;;21.43;41.11
70198;BME280;57582;-34.876;138.628;2023-03-20T14:13:56;101565;;;21.48;41.04
70198;BME280;57582;-34.876;138.628;2023-03-20T14:19:55;101572;;;21.42;40.99
70198;BME280;57582;-34.876;138.628;2023-03-20T14:22:55;101567;;;21.46;40.60
70198;BME280;57582;-34.876;138.628;2023-03-20T14:25:55;101574;;;21.42;40.50
70198;BME280;57582;-34.876;138.628;2023-03-20T14:28:59;101565;;;21.43;40.58
70198;BME280;57582;-34.876;138.628;2023-03-20T14:32:04;101573;;;21.43;40.70
70198;BME280;57582;-34.876;138.628;2023-03-20T14:34:59;101567;;;21.33;41.03
70198;BME280;57582;-34.876;138.628;2023-03-20T14:44:15;101544;;;21.09;42.40
70198;BME280;57582;-34.876;138.628;2023-03-20T14:46:58;101529;;;20.99;42.73
70198;BME280;57582;-34.876;138.628;2023-03-20T14:50:02;101520;;;20.88;43.07
70198;BME280;57582;-34.876;138.628;2023-03-20T14:52:59;101523;;;20.80;43.08
70198;BME280;57582;-34.876;138.628;2023-03-20T14:58:55;101519;;;20.84;43.21
70198;BME280;57582;-34.876;138.628;2023-03-20T15:01:58;101503;;;20.85;43.20
70198;BME280;57582;-34.876;138.628;2023-03-20T15:04:55;101522;;;20.88;43.31
70198;BME280;57582;-34.876;138.628;2023-03-20T15:07:55;101512;;;21.07;42.68
70198;BME280;57582;-34.876;138.628;2023-03-20T15:10:55;101491;;;21.25;42.24
70198;BME280;57582;-34.876;138.628;2023-03-20T15:13:55;101500;;;21.59;41.77
70198;BME280;57582;-34.876;138.628;2023-03-20T15:16:56;101491;;;21.63;41.41
70198;BME280;57582;-34.876;138.628;2023-03-20T15:22:58;101477;;;21.38;42.29
70198;BME280;57582;-34.876;138.628;2023-03-20T15:25:55;101472;;;21.55;42.15
70198;BME280;57582;-34.876;138.628;2023-03-20T15:28:58;101479;;;21.71;42.07
70198;BME280;57582;-34.876;138.628;2023-03-20T15:31:56;101481;;;21.88;41.91
70198;BME280;57582;-34.876;138.628;2023-03-20T15:34:55;101467;;;21.92;41.74
70198;BME280;57582;-34.876;138.628;2023-03-20T15:37:56;101466;;;22.07;41.63
70198;BME280;57582;-34.876;138.628;2023-03-20T15:40:55;101453;;;22.19;41.75
70198;BME280;57582;-34.876;138.628;2023-03-20T15:44:21;101450;;;22.30;41.62
70198;BME280;57582;-34.876;138.628;2023-03-20T15:46:56;101451;;;22.38;41.41
70198;BME280;57582;-34.876;138.628;2023-03-20T15:49:56;101448;;;22.39;41.42
70198;BME280;57582;-34.876;138.628;2023-03-20T15:52:55;101463;;;22.40;41.66
70198;BME280;57582;-34.876;138.628;2023-03-20T15:56:00;101464;;;22.34;41.84
70198;BME280;57582;-34.876;138.628;2023-03-20T15:58:55;101476;;;22.30;42.14
70198;BME280;57582;-34.876;138.628;2023-03-20T16:01:56;101466;;;22.29;41.73
70198;BME280;57582;-34.876;138.628;2023-03-20T16:04:55;101454;;;22.28;41.56
70198;BME280;57582;-34.876;138.628;2023-03-20T16:07:55;101453;;;22.32;41.45
70198;BME280;57582;-34.876;138.628;2023-03-20T16:10:57;101470;;;22.25;41.63
70198;BME280;57582;-34.876;138.628;2023-03-20T16:13:55;101476;;;22.30;41.73
70198;BME280;57582;-34.876;138.628;2023-03-20T16:16:55;101478;;;22.31;41.72
70198;BME280;57582;-34.876;138.628;2023-03-20T16:19:55;101486;;;22.36;41.68
70198;BME280;57582;-34.876;138.628;2023-03-20T16:22:58;101482;;;22.40;41.82
70198;BME280;57582;-34.876;138.628;2023-03-20T16:25:56;101491;;;22.44;42.02
70198;BME280;57582;-34.876;138.628;2023-03-20T16:28:56;101482;;;22.47;41.88
70198;BME280;57582;-34.876;138.628;2023-03-20T16:31:57;101463;;;22.32;42.62
70198;BME280;57582;-34.876;138.628;2023-03-20T16:34:55;101452;;;22.05;43.16
70198;BME280;57582;-34.876;138.628;2023-03-20T16:37:58;101448;;;21.85;43.92
70198;BME280;57582;-34.876;138.628;2023-03-20T16:40:55;101443;;;21.72;44.38
70198;BME280;57582;-34.876;138.628;2023-03-20T16:43:55;101440;;;21.42;45.11
70198;BME280;57582;-34.876;138.628;2023-03-20T16:50:08;101476;;;21.28;45.79
70198;BME280;57582;-34.876;138.628;2023-03-20T16:52:56;101500;;;21.45;45.84
70198;BME280;57582;-34.876;138.628;2023-03-20T16:55:55;101501;;;21.61;45.76
70198;BME280;57582;-34.876;138.628;2023-03-20T16:58:55;101491;;;21.73;46.24
70198;BME280;57582;-34.876;138.628;2023-03-20T17:01:57;101475;;;21.65;49.53
70198;BME280;57582;-34.876;138.628;2023-03-20T17:04:56;101431;;;20.96;50.83
70198;BME280;57582;-34.876;138.628;2023-03-20T17:07:57;101414;;;20.29;52.47
70198;BME280;57582;-34.876;138.628;2023-03-20T17:10:56;101414;;;20.08;52.62
70198;BME280;57582;-34.876;138.628;2023-03-20T17:13:55;101429;;;20.00;52.08
70198;BME280;57582;-34.876;138.628;2023-03-20T17:16:55;101410;;;20.03;52.18
70198;BME280;57582;-34.876;138.628;2023-03-20T17:19:55;101339;;;19.83;53.13
70198;BME280;57582;-34.876;138.628;2023-03-20T17:22:55;101379;;;20.12;51.58
70198;BME280;57582;-34.876;138.628;2023-03-20T17:25:55;101337;;;20.11;51.46
70198;BME280;57582;-34.876;138.628;2023-03-20T17:28:55;101316;;;20.15;50.23
70198;BME280;57582;-34.876;138.628;2023-03-20T17:31:55;101309;;;20.04;49.91
70198;BME280;57582;-34.876;138.628;2023-03-20T17:34:55;101298;;;19.96;49.41
70198;BME280;57582;-34.876;138.628;2023-03-20T17:37:55;101265;;;19.86;49.42
70198;BME280;57582;-34.876;138.628;2023-03-20T17:40:55;101235;;;19.96;49.34
70198;BME280;57582;-34.876;138.628;2023-03-20T17:43:55;101251;;;20.03;49.16
70198;BME280;57582;-34.876;138.628;2023-03-20T17:46:55;101230;;;20.06;48.88